createdAt,value
2018-05-31T00:00:05.343Z,72.37
2018-05-31T00:02:33.598Z,75.16
2018-05-31T00:05:01.900Z,75.38
2018-05-31T00:07:30.151Z,75.85
2018-05-31T00:09:58.429Z,76.34
2018-05-31T00:12:26.718Z,74.07
2018-05-31T00:14:54.994Z,72.85
2018-05-31T00:17:29.568Z,72.98
2018-05-31T00:19:57.906Z,72.89
2018-05-31T00:22:26.170Z,73.36
2018-05-31T00:24:54.450Z,73.20
2018-05-31T00:27:22.802Z,73.42
2018-05-31T00:29:51.042Z,74.94
2018-05-31T00:32:19.317Z,77.17
2018-05-31T00:34:49.648Z,78.02
2018-05-31T00:37:21.922Z,78.28
2018-05-31T00:39:54.515Z,76.91
2018-05-31T00:42:26.422Z,75.65
2018-05-31T00:44:57.640Z,75.07
2018-05-31T00:47:26.383Z,74.40
2018-05-31T00:49:54.660Z,74.01
2018-05-31T00:52:22.954Z,73.98
2018-05-31T00:54:51.241Z,74.02
2018-05-31T00:57:19.672Z,73.78
2018-05-31T00:59:47.968Z,74.45
2018-05-31T01:02:16.266Z,75.00
2018-05-31T01:04:44.549Z,76.47
2018-05-31T01:07:12.843Z,77.03
2018-05-31T01:09:42.238Z,78.11
2018-05-31T01:12:11.032Z,79.75
2018-05-31T01:14:41.134Z,81.51
2018-05-31T01:17:09.659Z,82.95
2018-05-31T01:19:38.293Z,82.44
2018-05-31T01:22:06.567Z,80.03
2018-05-31T01:24:34.847Z,81.05
2018-05-31T01:27:03.105Z,83.25
2018-05-31T01:29:31.385Z,81.18
2018-05-31T01:32:01.480Z,79.69
2018-05-31T01:34:30.481Z,78.98
2018-05-31T01:37:03.728Z,78.75
2018-05-31T01:39:34.407Z,79.21
2018-05-31T01:42:02.691Z,78.95
2018-05-31T01:44:31.266Z,79.07
2018-05-31T01:46:59.770Z,78.49
2018-05-31T01:49:28.256Z,77.41
2018-05-31T01:51:59.042Z,77.47
2018-05-31T01:54:27.386Z,76.15
2018-05-31T01:56:55.647Z,75.38
2018-05-31T01:59:24.233Z,75.71
2018-05-31T02:01:52.543Z,74.95
2018-05-31T02:04:20.810Z,77.58
2018-05-31T02:06:49.127Z,77.34
2018-05-31T02:09:17.400Z,77.39
2018-05-31T02:11:45.693Z,77.36
2018-05-31T02:14:13.964Z,77.34
2018-05-31T02:16:42.471Z,78.13
2018-05-31T02:19:10.740Z,77.48
2018-05-31T02:21:39.029Z,78.64
2018-05-31T02:24:07.293Z,78.75
2018-05-31T02:26:35.574Z,79.75
2018-05-31T02:29:03.850Z,79.49
2018-05-31T02:31:32.138Z,78.77
2018-05-31T02:34:00.398Z,78.50
2018-05-31T02:36:28.682Z,78.95
2018-05-31T02:38:57.166Z,80.44
2018-05-31T02:41:25.435Z,82.51
2018-05-31T02:43:54.259Z,81.65
2018-05-31T02:46:22.518Z,80.62
2018-05-31T02:48:50.798Z,80.31
2018-05-31T02:51:19.065Z,80.11
2018-05-31T02:53:47.350Z,79.88
2018-05-31T02:56:15.618Z,80.08
2018-05-31T02:58:45.566Z,80.76
2018-05-31T03:01:13.815Z,80.81
2018-05-31T03:03:42.088Z,80.48
2018-05-31T03:06:10.354Z,80.17
2018-05-31T03:08:38.635Z,80.12
2018-05-31T03:11:06.886Z,80.04
2018-05-31T03:13:35.168Z,79.99
2018-05-31T03:16:03.438Z,79.59
2018-05-31T03:18:31.743Z,79.37
2018-05-31T03:21:00.026Z,78.34
2018-05-31T03:23:28.290Z,77.03
2018-05-31T03:25:56.566Z,77.00
2018-05-31T03:28:24.830Z,77.70
2018-05-31T03:30:53.631Z,77.99
2018-05-31T03:33:21.921Z,78.22
2018-05-31T03:35:51.512Z,78.46
2018-05-31T03:38:19.746Z,78.93
2018-05-31T03:40:48.048Z,78.62
2018-05-31T03:43:16.311Z,78.92
2018-05-31T03:45:44.608Z,79.07
2018-05-31T03:48:12.872Z,79.93
2018-05-31T03:50:41.157Z,80.30
2018-05-31T03:53:09.425Z,80.09
2018-05-31T03:55:37.699Z,81.04
2018-05-31T03:58:05.976Z,80.79
2018-05-31T04:00:34.261Z,80.99
2018-05-31T04:03:02.538Z,80.47
2018-05-31T04:05:31.686Z,80.22
2018-05-31T04:07:59.959Z,80.26
2018-05-31T04:10:28.234Z,80.34
2018-05-31T04:12:56.589Z,80.30
2018-05-31T04:15:24.810Z,80.22
2018-05-31T04:17:53.086Z,80.87
2018-05-31T04:20:21.357Z,81.11
2018-05-31T04:22:49.661Z,81.72
2018-05-31T04:25:17.933Z,81.17
2018-05-31T04:27:46.202Z,81.00
2018-05-31T04:30:14.478Z,80.73
2018-05-31T04:32:42.761Z,80.42
2018-05-31T04:35:11.026Z,79.75
2018-05-31T04:37:39.334Z,78.99
2018-05-31T04:40:10.071Z,79.26
2018-05-31T04:42:39.876Z,80.29
2018-05-31T04:45:08.145Z,80.11
2018-05-31T04:47:36.742Z,80.24
2018-05-31T04:50:05.111Z,79.86
2018-05-31T04:52:33.720Z,78.85
2018-05-31T04:55:02.015Z,78.82
2018-05-31T04:57:30.281Z,78.52
2018-05-31T04:59:58.562Z,77.88
2018-05-31T05:02:26.834Z,77.59
2018-05-31T05:04:55.135Z,77.91
2018-05-31T05:07:23.389Z,76.96
2018-05-31T05:09:51.673Z,76.53
2018-05-31T05:12:20.454Z,76.80
2018-05-31T05:14:48.733Z,77.08
2018-05-31T05:17:17.003Z,76.93
2018-05-31T05:19:45.308Z,76.95
2018-05-31T05:22:15.169Z,76.99
2018-05-31T05:24:43.474Z,76.49
2018-05-31T05:27:11.883Z,76.03
2018-05-31T05:29:40.183Z,75.96
2018-05-31T05:32:09.155Z,75.82
2018-05-31T05:34:38.914Z,76.15
2018-05-31T05:37:07.173Z,76.75
2018-05-31T05:39:35.466Z,77.35
2018-05-31T05:42:09.833Z,77.88
2018-05-31T05:44:38.867Z,78.20
2018-05-31T05:47:08.049Z,78.37
2018-05-31T05:49:36.346Z,77.96
2018-05-31T05:52:05.196Z,76.82
2018-05-31T05:54:34.187Z,77.09
2018-05-31T05:57:02.570Z,76.80
2018-05-31T05:59:30.803Z,75.82
2018-05-31T06:01:59.114Z,75.61
2018-05-31T06:04:27.414Z,75.61
2018-05-31T06:06:56.482Z,75.29
2018-05-31T06:09:31.875Z,75.52
2018-05-31T06:12:00.180Z,75.12
2018-05-31T06:14:28.441Z,74.52
2018-05-31T06:16:56.786Z,74.53
2018-05-31T06:19:25.046Z,74.75
2018-05-31T06:21:53.334Z,74.72
2018-05-31T06:24:21.606Z,75.38
2018-05-31T06:26:49.875Z,75.53
2018-05-31T06:29:18.133Z,74.86
2018-05-31T06:31:46.420Z,74.62
2018-05-31T06:34:14.790Z,74.53
2018-05-31T06:36:44.294Z,74.44
2018-05-31T06:39:12.578Z,74.50
2018-05-31T06:41:40.847Z,74.66
2018-05-31T06:44:09.127Z,74.97
2018-05-31T06:46:37.402Z,74.52
2018-05-31T06:49:05.706Z,74.96
2018-05-31T06:51:33.971Z,75.31
2018-05-31T06:54:02.253Z,75.31
2018-05-31T06:56:30.519Z,74.79
2018-05-31T06:59:00.238Z,74.40
2018-05-31T07:01:28.490Z,74.00
2018-05-31T07:03:56.774Z,73.99
2018-05-31T07:06:25.048Z,74.16
2018-05-31T07:08:53.340Z,73.66
2018-05-31T07:11:21.599Z,72.98
2018-05-31T07:13:51.759Z,72.81
2018-05-31T07:16:20.723Z,72.48
2018-05-31T07:18:49.011Z,72.64
2018-05-31T07:21:17.270Z,72.78
2018-05-31T07:23:45.557Z,72.58
2018-05-31T07:26:14.938Z,72.67
2018-05-31T07:28:45.954Z,72.59
2018-05-31T07:31:16.633Z,72.49
2018-05-31T07:33:45.181Z,71.75
2018-05-31T07:36:13.474Z,71.26
2018-05-31T07:38:42.394Z,71.43
2018-05-31T07:41:10.862Z,70.86
2018-05-31T07:43:39.105Z,71.01
2018-05-31T07:46:07.391Z,70.33
2018-05-31T07:48:35.662Z,69.84
2018-05-31T07:51:04.960Z,69.71
2018-05-31T07:53:33.570Z,69.35
2018-05-31T07:56:01.853Z,69.55
2018-05-31T07:58:30.122Z,69.04
2018-05-31T08:00:58.500Z,69.64
2018-05-31T08:03:27.067Z,69.89
2018-05-31T08:05:55.367Z,69.14
2018-05-31T08:08:23.646Z,68.51
2018-05-31T08:10:51.992Z,69.03
2018-05-31T08:13:20.293Z,68.94
2018-05-31T08:15:48.552Z,68.37
2018-05-31T08:18:16.837Z,68.46
2018-05-31T08:20:45.128Z,67.78
2018-05-31T08:23:13.403Z,67.66
2018-05-31T08:25:41.754Z,67.47
2018-05-31T08:28:10.053Z,66.46
2018-05-31T08:30:38.308Z,66.30
2018-05-31T08:33:07.243Z,66.87
2018-05-31T08:35:35.515Z,67.39
2018-05-31T08:38:03.815Z,67.54
2018-05-31T08:40:32.090Z,67.10
2018-05-31T08:43:01.161Z,66.48
2018-05-31T08:45:29.505Z,66.41
2018-05-31T08:47:57.758Z,66.28
2018-05-31T08:50:26.072Z,65.58
2018-05-31T08:52:54.331Z,65.70
2018-05-31T08:55:23.874Z,65.96
2018-05-31T08:57:52.888Z,64.98
2018-05-31T09:00:22.169Z,64.01
2018-05-31T09:02:50.421Z,63.94
2018-05-31T09:05:18.705Z,64.09
2018-05-31T09:07:46.972Z,62.85
2018-05-31T09:10:15.257Z,62.94
2018-05-31T09:12:43.529Z,62.64
2018-05-31T09:15:11.901Z,62.69
2018-05-31T09:17:40.142Z,62.92
2018-05-31T09:20:08.403Z,61.60
2018-05-31T09:22:37.049Z,61.00
2018-05-31T09:25:05.310Z,59.16
2018-05-31T09:27:34.485Z,59.39
2018-05-31T09:30:02.742Z,59.71
2018-05-31T09:32:31.041Z,59.28
2018-05-31T09:34:59.397Z,59.01
2018-05-31T09:37:27.670Z,59.54
2018-05-31T09:39:55.965Z,59.12
2018-05-31T09:42:24.259Z,59.10
2018-05-31T09:44:52.565Z,59.57
2018-05-31T09:47:20.880Z,58.57
2018-05-31T09:49:49.252Z,59.82
2018-05-31T09:52:18.942Z,59.62
2018-05-31T09:54:48.158Z,58.81
2018-05-31T09:57:16.464Z,58.57
2018-05-31T09:59:44.728Z,59.36
2018-05-31T10:02:13.017Z,57.89
2018-05-31T10:04:41.279Z,57.92
2018-05-31T10:07:09.577Z,57.17
2018-05-31T10:09:37.821Z,56.65
2018-05-31T10:12:06.118Z,56.26
2018-05-31T10:14:35.517Z,56.12
2018-05-31T10:17:03.788Z,55.54
2018-05-31T10:19:39.917Z,54.88
2018-05-31T10:22:08.177Z,54.96
2018-05-31T10:24:36.469Z,54.20
2018-05-31T10:27:04.795Z,53.51
2018-05-31T10:29:33.129Z,54.69
2018-05-31T10:32:01.386Z,52.96
2018-05-31T10:34:29.995Z,52.83
2018-05-31T10:36:58.278Z,51.91
2018-05-31T10:39:26.959Z,51.89
2018-05-31T10:41:56.642Z,52.97
2018-05-31T10:44:24.978Z,54.68
2018-05-31T10:46:53.254Z,55.82
2018-05-31T10:49:21.594Z,55.62
2018-05-31T10:51:49.871Z,54.55
2018-05-31T10:54:18.137Z,54.36
2018-05-31T10:56:46.427Z,53.31
2018-05-31T10:59:14.708Z,52.57
2018-05-31T11:01:43.110Z,52.93
2018-05-31T11:04:11.517Z,53.56
2018-05-31T11:06:39.779Z,52.83
2018-05-31T11:09:08.050Z,52.17
2018-05-31T11:11:36.350Z,51.80
2018-05-31T11:14:05.581Z,51.11
2018-05-31T11:16:33.869Z,50.80
2018-05-31T11:19:02.177Z,50.11
2018-05-31T11:21:30.452Z,49.90
2018-05-31T11:23:58.746Z,50.32
2018-05-31T11:26:27.043Z,50.28
2018-05-31T11:28:55.389Z,50.21
2018-05-31T11:31:23.802Z,48.98
2018-05-31T11:33:52.065Z,49.71
2018-05-31T11:36:20.412Z,50.27
2018-05-31T11:38:49.139Z,49.68
2018-05-31T11:41:17.395Z,50.25
2018-05-31T11:43:45.708Z,50.17
2018-05-31T11:46:14.001Z,49.91
2018-05-31T11:48:42.313Z,49.54
2018-05-31T11:51:10.566Z,48.69
2018-05-31T11:53:38.860Z,49.07
2018-05-31T11:56:07.129Z,47.69
2018-05-31T11:58:36.662Z,47.96
2018-05-31T12:01:06.460Z,47.15
2018-05-31T12:03:34.772Z,48.04
2018-05-31T12:06:03.052Z,47.10
2018-05-31T12:08:31.358Z,47.75
2018-05-31T12:10:59.642Z,47.94
2018-05-31T12:13:28.270Z,48.58
2018-05-31T12:15:56.569Z,48.36
2018-05-31T12:18:25.210Z,47.60
2018-05-31T12:20:53.477Z,46.38
2018-05-31T12:23:22.781Z,46.48
2018-05-31T12:25:51.103Z,45.53
2018-05-31T12:28:21.079Z,45.39
2018-05-31T12:30:49.360Z,44.41
2018-05-31T12:33:17.615Z,43.95
2018-05-31T12:35:45.894Z,44.10
2018-05-31T12:38:14.192Z,43.21
2018-05-31T12:40:42.466Z,42.78
2018-05-31T12:43:10.739Z,42.12
2018-05-31T12:45:39.035Z,41.12
2018-05-31T12:48:07.281Z,41.97
2018-05-31T12:50:35.572Z,41.26
2018-05-31T12:53:05.240Z,41.92
2018-05-31T12:55:33.559Z,42.33
2018-05-31T12:58:01.815Z,42.11
2018-05-31T13:00:30.101Z,41.62
2018-05-31T13:02:58.373Z,41.40
2018-05-31T13:05:26.732Z,40.88
2018-05-31T13:07:54.987Z,39.19
2018-05-31T13:10:23.262Z,39.32
2018-05-31T13:12:51.825Z,39.70
2018-05-31T13:15:21.455Z,39.30
2018-05-31T13:17:49.788Z,39.24
2018-05-31T13:20:19.660Z,38.56
2018-05-31T13:22:47.959Z,39.35
2018-05-31T13:25:16.249Z,39.83
2018-05-31T13:27:44.510Z,40.45
2018-05-31T13:30:13.144Z,40.69
2018-05-31T13:32:42.083Z,40.79
2018-05-31T13:35:10.351Z,41.28
2018-05-31T13:37:38.647Z,41.31
2018-05-31T13:40:06.932Z,42.26
2018-05-31T13:42:35.219Z,41.76
2018-05-31T13:45:04.398Z,41.33
2018-05-31T13:47:34.274Z,41.33
2018-05-31T13:50:02.555Z,41.76
2018-05-31T13:52:30.848Z,41.89
2018-05-31T13:54:59.099Z,41.29
2018-05-31T13:57:27.458Z,40.39
2018-05-31T13:59:55.705Z,40.38
2018-05-31T14:02:23.992Z,40.91
2018-05-31T14:04:53.821Z,41.36
2018-05-31T14:07:22.099Z,41.10
2018-05-31T14:09:50.387Z,40.74
2018-05-31T14:12:18.641Z,40.15
2018-05-31T14:14:46.957Z,39.44
2018-05-31T14:17:15.239Z,38.47
2018-05-31T14:19:43.857Z,38.04
2018-05-31T14:22:12.146Z,37.52
2018-05-31T14:24:40.441Z,38.06
2018-05-31T14:27:08.699Z,37.99
2018-05-31T14:29:36.983Z,37.48
2018-05-31T14:32:05.365Z,37.50
2018-05-31T14:34:33.606Z,37.30
2018-05-31T14:37:01.901Z,36.36
2018-05-31T14:39:30.170Z,35.23
2018-05-31T14:41:58.478Z,35.65
2018-05-31T14:44:27.734Z,34.66
2018-05-31T14:46:58.512Z,34.57
2018-05-31T14:49:29.476Z,34.61
2018-05-31T14:51:57.785Z,34.54
2018-05-31T14:54:26.088Z,36.00
2018-05-31T14:56:55.483Z,37.35
2018-05-31T14:59:23.739Z,38.22
2018-05-31T15:01:52.130Z,38.53
2018-05-31T15:04:21.235Z,38.29
2018-05-31T15:06:49.518Z,37.98
2018-05-31T15:09:17.781Z,36.93
2018-05-31T15:11:46.090Z,36.00
2018-05-31T15:14:14.377Z,36.26
2018-05-31T15:16:42.716Z,35.56
2018-05-31T15:19:11.036Z,35.62
2018-05-31T15:21:42.025Z,35.68
2018-05-31T15:24:11.836Z,34.99
2018-05-31T15:26:41.083Z,35.09
2018-05-31T15:29:10.055Z,36.77
2018-05-31T15:31:39.363Z,37.63
2018-05-31T15:34:07.954Z,35.96
2018-05-31T15:36:36.230Z,34.41
2018-05-31T15:39:05.838Z,33.72
2018-05-31T15:41:34.095Z,33.54
2018-05-31T15:44:02.410Z,33.52
2018-05-31T15:46:30.709Z,33.97
2018-05-31T15:48:58.999Z,34.00
2018-05-31T15:51:28.042Z,34.13
2018-05-31T15:53:56.980Z,33.77
2018-05-31T15:56:25.254Z,33.11
2018-05-31T15:58:53.537Z,32.79
2018-05-31T16:01:21.866Z,31.81
2018-05-31T16:03:50.700Z,32.33
2018-05-31T16:06:21.736Z,32.27
2018-05-31T16:08:50.034Z,32.49
2018-05-31T16:11:19.533Z,32.88
2018-05-31T16:13:48.694Z,32.90
2018-05-31T16:16:16.940Z,33.38
2018-05-31T16:18:45.991Z,33.21
2018-05-31T16:21:14.248Z,32.28
2018-05-31T16:23:42.655Z,32.03
2018-05-31T16:26:10.990Z,31.87
2018-05-31T16:28:40.602Z,31.16
2018-05-31T16:31:08.943Z,30.85
2018-05-31T16:33:37.226Z,31.13
2018-05-31T16:36:05.585Z,31.52
2018-05-31T16:38:35.095Z,31.60
2018-05-31T16:41:04.741Z,31.75
2018-05-31T16:43:32.990Z,32.03
2018-05-31T16:46:01.274Z,32.23
2018-05-31T16:48:29.574Z,31.90
2018-05-31T16:50:57.898Z,30.79
2018-05-31T16:53:26.186Z,30.14
2018-05-31T16:55:54.491Z,29.38
2018-05-31T16:58:22.761Z,29.50
2018-05-31T17:00:51.054Z,28.67
2018-05-31T17:03:19.315Z,28.66
2018-05-31T17:05:47.571Z,28.96
2018-05-31T17:08:16.581Z,30.22
2018-05-31T17:10:44.859Z,31.80
2018-05-31T17:13:13.130Z,32.79
2018-05-31T17:15:41.483Z,33.75
2018-05-31T17:18:09.758Z,35.03
2018-05-31T17:20:38.015Z,36.48
2018-05-31T17:23:06.326Z,37.57
2018-05-31T17:25:34.606Z,37.20
2018-05-31T17:28:03.035Z,37.89
2018-05-31T17:30:31.502Z,38.18
2018-05-31T17:33:02.999Z,38.20
2018-05-31T17:35:31.271Z,38.38
2018-05-31T17:37:59.606Z,39.17
2018-05-31T17:40:30.074Z,39.44
2018-05-31T17:42:58.706Z,39.55
2018-05-31T17:45:28.177Z,39.63
2018-05-31T17:47:56.483Z,38.99
2018-05-31T17:50:24.794Z,38.38
2018-05-31T17:52:54.456Z,38.93
2018-05-31T17:55:22.839Z,39.75
2018-05-31T17:57:51.056Z,40.15
2018-05-31T18:00:19.333Z,40.33
2018-05-31T18:02:47.607Z,40.13
2018-05-31T18:05:15.921Z,40.16
2018-05-31T18:07:50.004Z,40.00
2018-05-31T18:10:18.321Z,39.76
2018-05-31T18:12:46.594Z,39.67
2018-05-31T18:15:14.992Z,39.98
2018-05-31T18:17:43.294Z,40.29
2018-05-31T18:20:11.632Z,41.26
2018-05-31T18:22:39.957Z,41.94
2018-05-31T18:25:08.307Z,42.46
2018-05-31T18:27:37.419Z,42.50
2018-05-31T18:30:05.710Z,42.70
2018-05-31T18:32:34.084Z,43.58
2018-05-31T18:35:03.383Z,44.14
2018-05-31T18:37:32.504Z,44.93
2018-05-31T18:40:01.838Z,45.21
2018-05-31T18:42:30.539Z,44.96
2018-05-31T18:45:00.003Z,45.28
2018-05-31T18:47:29.572Z,45.18
2018-05-31T18:49:57.951Z,44.86
2018-05-31T18:52:26.871Z,44.90
2018-05-31T18:54:56.196Z,45.55
2018-05-31T18:57:26.604Z,46.12
2018-05-31T18:59:55.254Z,46.58
2018-05-31T19:02:23.540Z,46.26
2018-05-31T19:04:51.861Z,45.99
2018-05-31T19:07:21.020Z,46.00
2018-05-31T19:09:49.311Z,45.76
2018-05-31T19:12:17.598Z,45.88
2018-05-31T19:14:49.982Z,46.80
2018-05-31T19:17:18.475Z,47.26
2018-05-31T19:19:52.771Z,47.88
2018-05-31T19:22:21.083Z,48.11
2018-05-31T19:24:55.203Z,47.78
2018-05-31T19:27:27.389Z,47.40
2018-05-31T19:30:02.655Z,47.20
2018-05-31T19:32:31.067Z,46.94
2018-05-31T19:34:59.487Z,47.01
2018-05-31T19:37:27.819Z,47.45
2018-05-31T19:39:56.142Z,48.07
2018-05-31T19:42:31.050Z,48.49
2018-05-31T19:44:59.381Z,48.53
2018-05-31T19:47:27.707Z,48.31
2018-05-31T19:49:56.004Z,49.39
2018-05-31T19:52:30.286Z,50.59
2018-05-31T19:54:58.522Z,50.82
2018-05-31T19:57:27.166Z,51.66
2018-05-31T20:00:00.975Z,51.94
2018-05-31T20:02:34.828Z,52.85
2018-05-31T20:05:05.335Z,52.99
2018-05-31T20:07:34.783Z,53.48
2018-05-31T20:10:03.023Z,53.86
2018-05-31T20:12:31.319Z,53.87
2018-05-31T20:14:59.565Z,54.04
2018-05-31T20:17:28.930Z,54.63
2018-05-31T20:19:57.368Z,54.84
2018-05-31T20:22:25.644Z,54.93
2018-05-31T20:24:53.975Z,55.12
2018-05-31T20:27:22.273Z,55.02
2018-05-31T20:29:50.521Z,55.24
2018-05-31T20:32:18.794Z,55.32
2018-05-31T20:34:47.295Z,55.16
2018-05-31T20:37:15.559Z,55.47
2018-05-31T20:39:44.170Z,56.20
2018-05-31T20:42:12.440Z,55.96
2018-05-31T20:44:40.733Z,55.54
2018-05-31T20:47:08.991Z,55.23
2018-05-31T20:49:37.303Z,55.76
2018-05-31T20:52:05.928Z,56.12
2018-05-31T20:54:34.241Z,56.76
2018-05-31T20:57:02.513Z,57.06
2018-05-31T20:59:30.827Z,56.71
2018-05-31T21:01:59.115Z,57.04
2018-05-31T21:04:27.442Z,57.40
2018-05-31T21:06:55.705Z,57.60
2018-05-31T21:09:23.966Z,57.65
2018-05-31T21:11:52.338Z,57.84
2018-05-31T21:14:21.166Z,57.56
2018-05-31T21:16:49.455Z,58.24
2018-05-31T21:19:17.716Z,58.05
2018-05-31T21:21:46.019Z,57.99
2018-05-31T21:24:14.311Z,58.06
2018-05-31T21:26:42.619Z,58.95
2018-05-31T21:29:12.122Z,59.51
2018-05-31T21:31:40.614Z,59.61
2018-05-31T21:34:12.690Z,59.58
2018-05-31T21:36:40.966Z,60.03
2018-05-31T21:39:09.770Z,60.26
2018-05-31T21:41:38.053Z,60.54
2018-05-31T21:44:06.343Z,60.33
2018-05-31T21:46:35.678Z,60.58
2018-05-31T21:49:06.786Z,60.53
2018-05-31T21:51:36.462Z,60.67
2018-05-31T21:54:04.956Z,60.65
2018-05-31T21:56:33.240Z,60.28
2018-05-31T21:59:02.927Z,60.23
2018-05-31T22:01:31.827Z,60.45
2018-05-31T22:04:00.104Z,60.45
2018-05-31T22:06:28.367Z,60.53
2018-05-31T22:08:56.657Z,60.58
2018-05-31T22:11:24.922Z,60.74
2018-05-31T22:13:53.218Z,60.83
2018-05-31T22:16:24.264Z,60.99
2018-05-31T22:18:52.558Z,60.65
2018-05-31T22:21:20.875Z,60.61
2018-05-31T22:23:49.175Z,60.24
2018-05-31T22:26:17.421Z,60.03
2018-05-31T22:28:45.721Z,59.46
2018-05-31T22:31:13.981Z,59.24
2018-05-31T22:33:42.674Z,58.13
2018-05-31T22:36:10.942Z,58.90
2018-05-31T22:38:39.238Z,60.05
2018-05-31T22:41:07.531Z,59.59
2018-05-31T22:43:35.787Z,59.33
2018-05-31T22:46:04.426Z,63.93
2018-05-31T22:48:32.690Z,64.06
2018-05-31T22:51:00.951Z,66.70
2018-05-31T22:53:30.587Z,67.71
2018-05-31T22:55:58.878Z,69.57
2018-05-31T22:58:27.162Z,72.18
2018-05-31T23:00:55.486Z,75.77
2018-05-31T23:03:23.749Z,77.12
2018-05-31T23:05:52.055Z,77.35
2018-05-31T23:08:20.330Z,79.25
2018-05-31T23:10:48.720Z,79.02
2018-05-31T23:13:16.979Z,80.26
2018-05-31T23:15:45.276Z,82.14
2018-05-31T23:18:13.541Z,81.37
2018-05-31T23:20:41.822Z,79.98
2018-05-31T23:23:10.092Z,82.37
2018-05-31T23:25:38.373Z,79.70
2018-05-31T23:28:06.636Z,81.83
2018-05-31T23:30:34.918Z,81.40
2018-05-31T23:33:04.591Z,82.50
2018-05-31T23:35:32.954Z,82.40
2018-05-31T23:38:01.220Z,81.86
2018-05-31T23:40:29.506Z,80.66
2018-05-31T23:42:57.781Z,80.93
2018-05-31T23:45:26.050Z,82.89
2018-05-31T23:47:54.350Z,82.92
2018-05-31T23:50:22.623Z,83.86
2018-05-31T23:52:50.933Z,83.63
2018-05-31T23:55:19.307Z,84.17
2018-05-31T23:57:47.686Z,83.87
